createdAt,value
2023-05-06T00:00:00.175Z,0.00
2023-05-06T00:01:00.140Z,0.00
2023-05-06T00:02:00.109Z,0.00
2023-05-06T00:03:00.137Z,0.00
2023-05-06T00:04:00.286Z,0.00
2023-05-06T00:05:00.052Z,0.00
2023-05-06T00:06:00.032Z,0.00
2023-05-06T00:07:00.001Z,0.00
2023-05-06T00:08:00.040Z,0.00
2023-05-06T00:08:59.974Z,0.00
2023-05-06T00:09:59.991Z,0.00
2023-05-06T00:10:59.943Z,0.00
2023-05-06T00:11:59.978Z,0.00
2023-05-06T00:12:59.974Z,0.00
2023-05-06T00:13:59.926Z,0.00
2023-05-06T00:14:59.933Z,0.00
2023-05-06T00:15:59.916Z,0.00
2023-05-06T00:16:59.857Z,0.00
2023-05-06T00:17:59.881Z,0.00
2023-05-06T00:18:59.831Z,0.00
2023-05-06T00:19:59.866Z,0.00
2023-05-06T00:20:59.810Z,0.00
2023-05-06T00:21:59.833Z,0.00
2023-05-06T00:22:59.789Z,0.00
2023-05-06T00:23:59.802Z,0.00
2023-05-06T00:24:59.765Z,0.00
2023-05-06T00:25:59.768Z,0.00
2023-05-06T00:26:59.764Z,0.00
2023-05-06T00:27:59.753Z,0.00
2023-05-06T00:28:59.722Z,0.00
2023-05-06T00:29:59.725Z,0.00
2023-05-06T00:30:59.681Z,0.00
2023-05-06T00:31:59.787Z,0.00
2023-05-06T00:32:59.715Z,0.00
2023-05-06T00:33:59.697Z,0.00
2023-05-06T00:34:59.649Z,0.00
2023-05-06T00:35:59.640Z,0.00
2023-05-06T00:36:59.622Z,0.00
2023-05-06T00:37:59.608Z,0.00
2023-05-06T00:38:59.598Z,0.00
2023-05-06T00:39:59.584Z,0.00
2023-05-06T00:40:59.552Z,0.00
2023-05-06T00:41:59.572Z,0.00
2023-05-06T00:42:59.509Z,0.00
2023-05-06T00:43:59.558Z,0.00
2023-05-06T00:44:59.485Z,0.00
2023-05-06T00:45:59.558Z,0.00
2023-05-06T00:46:59.488Z,0.00
2023-05-06T00:47:59.529Z,0.00
2023-05-06T00:48:59.506Z,0.00
2023-05-06T00:49:59.476Z,0.00
2023-05-06T00:50:59.421Z,0.00
2023-05-06T00:51:59.418Z,0.00
2023-05-06T00:52:59.455Z,0.00
2023-05-06T00:53:59.430Z,0.00
2023-05-06T00:54:59.380Z,0.00
2023-05-06T00:55:59.387Z,0.00
2023-05-06T00:56:59.361Z,0.00
2023-05-06T00:57:59.344Z,0.00
2023-05-06T00:58:59.372Z,0.00
2023-05-06T00:59:59.328Z,0.00
2023-05-06T01:00:59.277Z,0.00
2023-05-06T01:01:59.316Z,0.00
2023-05-06T01:02:59.443Z,0.00
2023-05-06T01:03:59.430Z,0.00
2023-05-06T01:04:59.290Z,0.00
2023-05-06T01:05:59.244Z,0.00
2023-05-06T01:06:59.216Z,0.00
2023-05-06T01:07:59.233Z,0.00
2023-05-06T01:08:59.176Z,0.00
2023-05-06T01:09:59.228Z,0.00
2023-05-06T01:10:59.159Z,0.00
2023-05-06T01:11:59.176Z,0.00
2023-05-06T01:12:59.182Z,0.00
2023-05-06T01:13:59.132Z,0.00
2023-05-06T01:14:59.109Z,0.00
2023-05-06T01:15:59.148Z,0.00
2023-05-06T01:16:59.135Z,0.00
2023-05-06T01:17:59.123Z,0.00
2023-05-06T01:18:59.048Z,0.00
2023-05-06T01:19:59.110Z,0.00
2023-05-06T01:20:59.050Z,0.00
2023-05-06T01:21:59.055Z,0.00
2023-05-06T01:22:59.014Z,0.00
2023-05-06T01:23:59.039Z,0.00
2023-05-06T01:24:58.973Z,0.00
2023-05-06T01:25:59.026Z,0.00
2023-05-06T01:26:58.965Z,0.00
2023-05-06T01:27:58.964Z,0.00
2023-05-06T01:28:58.952Z,0.00
2023-05-06T01:29:58.938Z,0.00
2023-05-06T01:30:58.925Z,0.00
2023-05-06T01:31:58.907Z,0.00
2023-05-06T01:32:58.909Z,0.00
2023-05-06T01:33:58.897Z,0.00
2023-05-06T01:34:58.844Z,0.00
2023-05-06T01:35:58.849Z,0.00
2023-05-06T01:36:58.841Z,0.00
2023-05-06T01:37:58.814Z,0.00
2023-05-06T01:38:58.802Z,0.00
2023-05-06T01:39:58.806Z,0.00
2023-05-06T01:40:58.774Z,0.00
2023-05-06T01:41:58.798Z,0.00
2023-05-06T01:42:58.742Z,0.00
2023-05-06T01:43:58.752Z,0.00
2023-05-06T01:44:58.711Z,0.00
2023-05-06T01:45:58.768Z,0.00
2023-05-06T01:46:58.813Z,0.00
2023-05-06T01:47:58.718Z,0.00
2023-05-06T01:48:58.677Z,0.00
2023-05-06T01:49:58.686Z,0.00
2023-05-06T01:50:58.642Z,0.00
2023-05-06T01:51:58.661Z,0.00
2023-05-06T01:52:58.633Z,0.00
2023-05-06T01:53:58.643Z,0.00
2023-05-06T01:54:58.584Z,0.00
2023-05-06T01:55:58.598Z,0.00
2023-05-06T01:56:58.589Z,0.00
2023-05-06T01:57:58.564Z,0.00
2023-05-06T01:58:59.523Z,0.00
2023-05-06T01:59:58.511Z,0.00
2023-05-06T02:00:58.523Z,0.00
2023-05-06T02:01:58.550Z,0.00
2023-05-06T02:02:58.551Z,0.00
2023-05-06T02:03:58.517Z,0.00
2023-05-06T02:04:58.498Z,0.00
2023-05-06T02:05:58.449Z,0.00
2023-05-06T02:06:58.476Z,0.00
2023-05-06T02:07:58.475Z,0.00
2023-05-06T02:08:58.452Z,0.00
2023-05-06T02:09:58.447Z,0.00
2023-05-06T02:10:58.401Z,0.00
2023-05-06T02:11:58.351Z,0.00
2023-05-06T02:12:58.414Z,0.00
2023-05-06T02:13:58.363Z,0.00
2023-05-06T02:14:58.337Z,0.00
2023-05-06T02:15:58.323Z,0.00
2023-05-06T02:16:58.308Z,0.00
2023-05-06T02:17:58.322Z,0.00
2023-05-06T02:18:58.309Z,0.00
2023-05-06T02:19:58.293Z,0.00
2023-05-06T02:20:58.283Z,0.00
2023-05-06T02:21:58.243Z,0.00
2023-05-06T02:22:58.238Z,0.00
2023-05-06T02:23:58.183Z,0.00
2023-05-06T02:24:58.213Z,0.00
2023-05-06T02:25:58.200Z,0.00
2023-05-06T02:26:58.182Z,0.00
2023-05-06T02:27:58.135Z,0.00
2023-05-06T02:28:58.166Z,0.00
2023-05-06T02:29:58.118Z,0.00
2023-05-06T02:30:58.169Z,0.00
2023-05-06T02:31:58.183Z,0.00
2023-05-06T02:32:58.142Z,0.00
2023-05-06T02:33:58.062Z,0.00
2023-05-06T02:34:58.083Z,0.00
2023-05-06T02:35:58.078Z,0.00
2023-05-06T02:36:58.037Z,0.00
2023-05-06T02:37:58.007Z,0.00
2023-05-06T02:38:58.051Z,0.00
2023-05-06T02:39:58.062Z,0.00
2023-05-06T02:40:58.016Z,0.00
2023-05-06T02:41:57.958Z,0.00
2023-05-06T02:42:58.042Z,0.00
2023-05-06T02:43:57.932Z,0.00
2023-05-06T02:44:57.983Z,0.00
2023-05-06T02:45:57.962Z,0.00
2023-05-06T02:46:57.943Z,0.00
2023-05-06T02:47:57.929Z,0.00
2023-05-06T02:48:57.905Z,0.00
2023-05-06T02:49:57.855Z,0.00
2023-05-06T02:50:57.866Z,0.00
2023-05-06T02:51:57.851Z,0.00
2023-05-06T02:52:57.822Z,0.00
2023-05-06T02:53:57.798Z,0.00
2023-05-06T02:54:57.807Z,0.00
2023-05-06T02:55:57.887Z,0.00
2023-05-06T02:56:57.802Z,0.00
2023-05-06T02:57:57.752Z,0.00
2023-05-06T02:58:57.751Z,0.00
2023-05-06T02:59:57.722Z,0.00
2023-05-06T03:00:57.761Z,0.00
2023-05-06T03:01:57.706Z,0.00
2023-05-06T03:02:57.780Z,0.00
2023-05-06T03:03:57.696Z,0.00
2023-05-06T03:04:57.690Z,0.00
2023-05-06T03:05:57.630Z,0.00
2023-05-06T03:06:57.671Z,0.00
2023-05-06T03:07:57.613Z,0.00
2023-05-06T03:08:57.630Z,0.00
2023-05-06T03:09:57.583Z,0.00
2023-05-06T03:10:57.615Z,0.00
2023-05-06T03:11:57.562Z,0.00
2023-05-06T03:12:57.602Z,0.00
2023-05-06T03:13:57.557Z,0.00
2023-05-06T03:14:57.561Z,0.00
2023-05-06T03:15:57.502Z,0.00
2023-05-06T03:16:57.674Z,0.00
2023-05-06T03:17:57.543Z,0.00
2023-05-06T03:18:57.480Z,0.00
2023-05-06T03:19:57.467Z,0.00
2023-05-06T03:20:57.500Z,0.00
2023-05-06T03:21:57.445Z,0.00
2023-05-06T03:22:57.423Z,0.00
2023-05-06T03:23:57.443Z,0.00
2023-05-06T03:24:57.403Z,0.00
2023-05-06T03:25:57.360Z,0.00
2023-05-06T03:26:57.403Z,0.00
2023-05-06T03:27:57.364Z,0.00
2023-05-06T03:28:57.439Z,0.00
2023-05-06T03:29:57.328Z,0.00
2023-05-06T03:30:57.348Z,0.00
2023-05-06T03:31:57.319Z,0.00
2023-05-06T03:32:57.362Z,0.00
2023-05-06T03:33:57.277Z,0.00
2023-05-06T03:34:57.318Z,0.00
2023-05-06T03:35:57.236Z,0.00
2023-05-06T03:36:57.252Z,0.00
2023-05-06T03:37:57.222Z,0.00
2023-05-06T03:38:57.218Z,0.00
2023-05-06T03:39:57.212Z,0.00
2023-05-06T03:40:57.260Z,0.00
2023-05-06T03:41:57.166Z,0.00
2023-05-06T03:42:57.179Z,0.00
2023-05-06T03:43:57.160Z,0.00
2023-05-06T03:44:57.172Z,0.00
2023-05-06T03:45:57.132Z,0.00
2023-05-06T03:46:57.162Z,0.00
2023-05-06T03:47:58.451Z,0.00
2023-05-06T03:48:57.118Z,0.00
2023-05-06T03:49:57.056Z,0.00
2023-05-06T03:50:57.067Z,4.00
2023-05-06T03:51:57.034Z,4.00
2023-05-06T03:52:57.058Z,4.00
2023-05-06T03:53:57.000Z,0.00
2023-05-06T03:54:57.042Z,0.00
2023-05-06T03:55:56.988Z,0.00
2023-05-06T03:56:57.003Z,4.00
2023-05-06T03:57:56.954Z,4.00
2023-05-06T03:58:57.015Z,0.00
2023-05-06T03:59:56.931Z,0.00
2023-05-06T04:00:56.927Z,4.00
2023-05-06T04:01:56.925Z,4.00
2023-05-06T04:02:56.974Z,0.00
2023-05-06T04:03:56.906Z,4.00
2023-05-06T04:04:56.869Z,4.00
2023-05-06T04:05:56.916Z,4.00
2023-05-06T04:06:56.886Z,4.00
2023-05-06T04:07:56.809Z,4.00
2023-05-06T04:08:56.831Z,8.00
2023-05-06T04:09:56.816Z,4.00
2023-05-06T04:10:56.850Z,8.00
2023-05-06T04:11:56.750Z,8.00
2023-05-06T04:12:56.781Z,8.00
2023-05-06T04:13:56.761Z,8.00
2023-05-06T04:14:56.769Z,8.00
2023-05-06T04:15:56.728Z,8.00
2023-05-06T04:16:56.716Z,8.00
2023-05-06T04:17:56.721Z,8.00
2023-05-06T04:18:56.743Z,8.00
2023-05-06T04:19:56.665Z,12.00
2023-05-06T04:20:56.698Z,12.00
2023-05-06T04:21:56.638Z,12.00
2023-05-06T04:22:56.652Z,12.00
2023-05-06T04:23:56.621Z,12.00
2023-05-06T04:24:56.635Z,16.00
2023-05-06T04:25:56.585Z,16.00
2023-05-06T04:26:56.573Z,16.00
2023-05-06T04:27:56.548Z,16.00
2023-05-06T04:28:56.564Z,16.00
2023-05-06T04:29:56.549Z,20.00
2023-05-06T04:30:56.528Z,20.00
2023-05-06T04:31:56.524Z,20.00
2023-05-06T04:32:56.579Z,20.00
2023-05-06T04:33:56.468Z,20.00
2023-05-06T04:34:56.495Z,24.00
2023-05-06T04:35:56.436Z,24.00
2023-05-06T04:36:56.468Z,24.00
2023-05-06T04:37:56.411Z,28.00
2023-05-06T04:38:56.438Z,28.00
2023-05-06T04:39:56.413Z,24.00
2023-05-06T04:40:56.402Z,28.00
2023-05-06T04:41:56.373Z,28.00
2023-05-06T04:42:56.442Z,32.00
2023-05-06T04:43:56.336Z,32.00
2023-05-06T04:44:56.346Z,32.00
2023-05-06T04:45:56.388Z,32.00
2023-05-06T04:46:56.313Z,36.00
2023-05-06T04:47:56.382Z,36.00
2023-05-06T04:48:56.291Z,36.00
2023-05-06T04:49:56.251Z,36.00
2023-05-06T04:50:56.290Z,40.00
2023-05-06T04:51:56.256Z,40.00
2023-05-06T04:52:56.234Z,44.00
2023-05-06T04:53:56.208Z,48.00
2023-05-06T04:54:56.232Z,48.00
2023-05-06T04:55:56.189Z,48.00
2023-05-06T04:56:56.187Z,52.00
2023-05-06T04:57:56.237Z,52.00
2023-05-06T04:58:56.162Z,56.00
2023-05-06T04:59:56.119Z,56.00
2023-05-06T05:00:56.238Z,56.00
2023-05-06T05:01:56.145Z,56.00
2023-05-06T05:02:56.168Z,56.00
2023-05-06T05:03:56.138Z,56.00
2023-05-06T05:04:56.108Z,56.00
2023-05-06T05:05:56.025Z,56.00
2023-05-06T05:06:56.066Z,60.00
2023-05-06T05:07:56.045Z,60.00
2023-05-06T05:08:56.294Z,64.00
2023-05-06T05:09:55.983Z,68.00
2023-05-06T05:10:56.034Z,64.00
2023-05-06T05:11:55.973Z,68.00
2023-05-06T05:12:55.991Z,72.00
2023-05-06T05:13:57.381Z,72.00
2023-05-06T05:14:55.980Z,72.00
2023-05-06T05:15:55.919Z,76.00
2023-05-06T05:16:56.062Z,76.00
2023-05-06T05:17:55.921Z,72.00
2023-05-06T05:18:55.910Z,72.00
2023-05-06T05:19:55.889Z,76.00
2023-05-06T05:20:55.884Z,76.00
2023-05-06T05:21:55.830Z,76.00
2023-05-06T05:22:55.853Z,76.00
2023-05-06T05:23:55.812Z,84.00
2023-05-06T05:24:55.846Z,80.00
2023-05-06T05:25:55.774Z,84.00
2023-05-06T05:26:55.792Z,88.00
2023-05-06T05:27:55.756Z,88.00
2023-05-06T05:28:55.778Z,88.00
2023-05-06T05:29:55.752Z,84.00
2023-05-06T05:30:55.775Z,88.00
2023-05-06T05:31:55.711Z,84.00
2023-05-06T05:32:55.809Z,84.00
2023-05-06T05:33:55.717Z,88.00
2023-05-06T05:34:55.719Z,88.00
2023-05-06T05:35:55.667Z,88.00
2023-05-06T05:36:55.684Z,88.00
2023-05-06T05:37:55.627Z,88.00
2023-05-06T05:38:55.635Z,88.00
2023-05-06T05:39:55.612Z,88.00
2023-05-06T05:40:55.601Z,88.00
2023-05-06T05:41:55.586Z,92.00
2023-05-06T05:42:55.600Z,92.00
2023-05-06T05:43:55.549Z,88.00
2023-05-06T05:44:55.612Z,92.00
2023-05-06T05:45:55.543Z,92.00
2023-05-06T05:46:55.535Z,92.00
2023-05-06T05:47:55.555Z,96.00
2023-05-06T05:48:55.501Z,96.00
2023-05-06T05:49:55.496Z,100.00
2023-05-06T05:50:55.507Z,96.00
2023-05-06T05:51:55.445Z,96.00
2023-05-06T05:52:55.448Z,96.00
2023-05-06T05:53:55.431Z,96.00
2023-05-06T05:54:55.411Z,96.00
2023-05-06T05:55:55.376Z,96.00
2023-05-06T05:56:55.384Z,96.00
2023-05-06T05:57:55.395Z,96.00
2023-05-06T05:58:55.374Z,96.00
2023-05-06T05:59:55.342Z,92.00
2023-05-06T06:00:55.340Z,96.00
2023-05-06T06:01:55.929Z,96.00
2023-05-06T06:02:57.932Z,100.00
2023-05-06T06:03:55.373Z,100.00
2023-05-06T06:04:55.360Z,100.00
2023-05-06T06:05:55.315Z,104.00
2023-05-06T06:06:55.245Z,100.00
2023-05-06T06:07:55.213Z,104.00
2023-05-06T06:08:55.252Z,104.00
2023-05-06T06:09:55.191Z,104.00
2023-05-06T06:10:55.207Z,104.00
2023-05-06T06:11:57.352Z,108.00
2023-05-06T06:12:55.160Z,112.00
2023-05-06T06:13:55.202Z,116.00
2023-05-06T06:14:55.123Z,120.00
2023-05-06T06:15:55.165Z,112.00
2023-05-06T06:16:55.116Z,112.00
2023-05-06T06:17:55.177Z,116.00
2023-05-06T06:18:55.081Z,116.00
2023-05-06T06:19:55.141Z,120.00
2023-05-06T06:20:55.374Z,132.00
2023-05-06T06:21:55.058Z,128.00
2023-05-06T06:22:55.027Z,144.00
2023-05-06T06:23:55.052Z,136.00
2023-05-06T06:24:54.991Z,128.00
2023-05-06T06:25:55.003Z,140.00
2023-05-06T06:26:54.969Z,140.00
2023-05-06T06:27:54.968Z,144.00
2023-05-06T06:28:54.956Z,140.00
2023-05-06T06:29:54.959Z,164.00
2023-05-06T06:30:54.937Z,156.00
2023-05-06T06:31:54.980Z,160.00
2023-05-06T06:32:54.966Z,148.00
2023-05-06T06:33:54.916Z,144.00
2023-05-06T06:34:54.878Z,160.00
2023-05-06T06:35:54.910Z,168.00
2023-05-06T06:36:54.835Z,184.00
2023-05-06T06:37:54.892Z,176.00
2023-05-06T06:38:54.825Z,168.00
2023-05-06T06:39:54.835Z,160.00
2023-05-06T06:40:54.805Z,136.00
2023-05-06T06:41:54.839Z,160.00
2023-05-06T06:42:54.765Z,160.00
2023-05-06T06:43:54.765Z,160.00
2023-05-06T06:44:54.722Z,168.00
2023-05-06T06:45:54.784Z,188.00
2023-05-06T06:46:54.713Z,180.00
2023-05-06T06:47:54.810Z,176.00
2023-05-06T06:48:54.683Z,172.00
2023-05-06T06:49:54.686Z,168.00
2023-05-06T06:50:54.649Z,196.00
2023-05-06T06:51:54.660Z,180.00
2023-05-06T06:52:54.651Z,180.00
2023-05-06T06:53:54.667Z,188.00
2023-05-06T06:54:54.598Z,192.00
2023-05-06T06:55:54.632Z,208.00
2023-05-06T06:56:56.384Z,216.00
2023-05-06T06:57:54.619Z,204.00
2023-05-06T06:58:54.549Z,220.00
2023-05-06T06:59:54.570Z,184.00
2023-05-06T07:00:54.570Z,244.00
2023-05-06T07:01:54.536Z,280.00
2023-05-06T07:02:54.568Z,248.00
2023-05-06T07:03:54.536Z,312.00
2023-05-06T07:04:54.490Z,276.00
2023-05-06T07:05:54.479Z,292.00
2023-05-06T07:06:54.446Z,288.00
2023-05-06T07:07:54.459Z,272.00
2023-05-06T07:08:54.464Z,288.00
2023-05-06T07:09:54.420Z,308.00
2023-05-06T07:10:54.385Z,320.00
2023-05-06T07:11:54.407Z,304.00
2023-05-06T07:12:54.475Z,352.00
2023-05-06T07:13:55.288Z,404.00
2023-05-06T07:14:54.369Z,404.00
2023-05-06T07:15:54.353Z,452.00
2023-05-06T07:16:54.331Z,396.00
2023-05-06T07:17:54.325Z,564.00
2023-05-06T07:18:54.298Z,640.00
2023-05-06T07:19:54.309Z,700.00
2023-05-06T07:20:54.249Z,744.00
2023-05-06T07:21:54.284Z,716.00
2023-05-06T07:22:54.667Z,716.00
2023-05-06T07:23:54.254Z,800.00
2023-05-06T07:24:54.242Z,740.00
2023-05-06T07:25:54.221Z,768.00
2023-05-06T07:26:54.195Z,788.00
2023-05-06T07:27:54.207Z,724.00
2023-05-06T07:28:54.169Z,624.00
2023-05-06T07:29:54.174Z,628.00
2023-05-06T07:30:54.189Z,628.00
2023-05-06T07:31:54.453Z,520.00
2023-05-06T07:32:54.192Z,748.00
2023-05-06T07:33:54.127Z,856.00
2023-05-06T07:34:54.083Z,880.00
2023-05-06T07:35:54.111Z,884.00
2023-05-06T07:36:54.048Z,804.00
2023-05-06T07:37:54.065Z,800.00
2023-05-06T07:38:54.032Z,728.00
2023-05-06T07:39:54.072Z,656.00
2023-05-06T07:40:54.108Z,680.00
2023-05-06T07:41:54.010Z,672.00
2023-05-06T07:42:53.965Z,728.00
2023-05-06T07:43:53.973Z,692.00
2023-05-06T07:44:53.962Z,752.00
2023-05-06T07:45:53.980Z,700.00
2023-05-06T07:46:53.977Z,792.00
2023-05-06T07:47:54.065Z,828.00
2023-05-06T07:48:53.904Z,868.00
2023-05-06T07:49:53.932Z,788.00
2023-05-06T07:50:53.860Z,736.00
2023-05-06T07:51:53.889Z,820.00
2023-05-06T07:52:53.846Z,772.00
2023-05-06T07:53:53.874Z,532.00
2023-05-06T07:54:53.824Z,704.00
2023-05-06T07:55:53.831Z,760.00
2023-05-06T07:56:53.780Z,540.00
2023-05-06T07:57:53.785Z,568.00
2023-05-06T07:58:53.781Z,636.00
2023-05-06T07:59:53.775Z,704.00
2023-05-06T08:00:53.748Z,756.00
2023-05-06T08:01:53.731Z,820.00
2023-05-06T08:02:53.758Z,820.00
2023-05-06T08:03:53.769Z,884.00
2023-05-06T08:04:53.798Z,896.00
2023-05-06T08:05:53.799Z,908.00
2023-05-06T08:06:53.656Z,552.00
2023-05-06T08:07:53.675Z,764.00
2023-05-06T08:08:53.630Z,856.00
2023-05-06T08:09:53.640Z,924.00
2023-05-06T08:10:53.624Z,916.00
2023-05-06T08:11:53.617Z,928.00
2023-05-06T08:12:53.675Z,932.00
2023-05-06T08:13:53.586Z,928.00
2023-05-06T08:14:53.552Z,912.00
2023-05-06T08:15:53.901Z,916.00
2023-05-06T08:16:55.748Z,928.00
2023-05-06T08:17:53.563Z,872.00
2023-05-06T08:18:53.517Z,872.00
2023-05-06T08:19:53.509Z,752.00
2023-05-06T08:20:53.473Z,568.00
2023-05-06T08:21:53.494Z,312.00
2023-05-06T08:22:53.483Z,284.00
2023-05-06T08:23:53.451Z,276.00
2023-05-06T08:24:53.426Z,268.00
2023-05-06T08:25:55.750Z,272.00
2023-05-06T08:26:53.393Z,268.00
2023-05-06T08:27:53.436Z,276.00
2023-05-06T08:28:53.373Z,296.00
2023-05-06T08:29:53.367Z,348.00
2023-05-06T08:30:53.356Z,604.00
2023-05-06T08:31:53.503Z,528.00
2023-05-06T08:32:53.394Z,560.00
2023-05-06T08:33:54.734Z,504.00
2023-05-06T08:34:53.306Z,436.00
2023-05-06T08:35:53.304Z,424.00
2023-05-06T08:36:53.290Z,420.00
2023-05-06T08:37:53.272Z,432.00
2023-05-06T08:38:53.258Z,444.00
2023-05-06T08:39:53.268Z,420.00
2023-05-06T08:40:53.204Z,412.00
2023-05-06T08:41:53.230Z,412.00
2023-05-06T08:42:53.203Z,428.00
2023-05-06T08:43:53.207Z,448.00
2023-05-06T08:44:53.160Z,476.00
2023-05-06T08:45:53.181Z,468.00
2023-05-06T08:46:53.131Z,488.00
2023-05-06T08:47:53.160Z,308.00
2023-05-06T08:48:53.101Z,308.00
2023-05-06T08:49:53.140Z,424.00
2023-05-06T08:50:53.092Z,492.00
2023-05-06T08:51:53.083Z,516.00
2023-05-06T08:52:53.052Z,516.00
2023-05-06T08:53:53.079Z,536.00
2023-05-06T08:54:53.066Z,536.00
2023-05-06T08:55:53.034Z,528.00
2023-05-06T08:56:53.018Z,520.00
2023-05-06T08:57:53.015Z,488.00
2023-05-06T08:58:52.991Z,456.00
2023-05-06T08:59:53.002Z,420.00
2023-05-06T09:00:52.979Z,388.00
2023-05-06T09:01:52.984Z,380.00
2023-05-06T09:02:53.023Z,368.00
2023-05-06T09:03:53.029Z,356.00
2023-05-06T09:04:52.920Z,340.00
2023-05-06T09:05:52.908Z,320.00
2023-05-06T09:06:52.882Z,328.00
2023-05-06T09:07:52.895Z,336.00
2023-05-06T09:08:52.838Z,352.00
2023-05-06T09:09:53.157Z,380.00
2023-05-06T09:10:52.856Z,400.00
2023-05-06T09:11:52.834Z,416.00
2023-05-06T09:12:52.870Z,440.00
2023-05-06T09:13:52.794Z,460.00
2023-05-06T09:14:52.751Z,472.00
2023-05-06T09:15:52.793Z,464.00
2023-05-06T09:16:52.875Z,480.00
2023-05-06T09:17:52.801Z,504.00
2023-05-06T09:18:52.788Z,500.00
2023-05-06T09:19:52.717Z,480.00
2023-05-06T09:20:52.720Z,492.00
2023-05-06T09:21:52.707Z,496.00
2023-05-06T09:22:52.660Z,508.00
2023-05-06T09:23:52.665Z,524.00
2023-05-06T09:24:52.655Z,516.00
2023-05-06T09:25:52.644Z,500.00
2023-05-06T09:26:52.636Z,512.00
2023-05-06T09:27:52.618Z,520.00
2023-05-06T09:28:52.570Z,520.00
2023-05-06T09:29:52.582Z,540.00
2023-05-06T09:30:52.623Z,540.00
2023-05-06T09:31:52.576Z,532.00
2023-05-06T09:32:52.548Z,528.00
2023-05-06T09:33:52.544Z,508.00
2023-05-06T09:34:52.502Z,492.00
2023-05-06T09:35:52.523Z,464.00
2023-05-06T09:36:52.522Z,472.00
2023-05-06T09:37:52.482Z,468.00
2023-05-06T09:38:52.454Z,456.00
2023-05-06T09:39:52.455Z,464.00
2023-05-06T09:40:52.451Z,504.00
2023-05-06T09:41:52.456Z,520.00
2023-05-06T09:42:52.394Z,528.00
2023-05-06T09:43:52.427Z,532.00
2023-05-06T09:44:52.383Z,528.00
2023-05-06T09:45:52.470Z,548.00
2023-05-06T09:46:52.381Z,560.00
2023-05-06T09:47:52.359Z,544.00
2023-05-06T09:48:52.364Z,536.00
2023-05-06T09:49:52.346Z,540.00
2023-05-06T09:50:52.299Z,556.00
2023-05-06T09:51:52.324Z,572.00
2023-05-06T09:52:52.285Z,508.00
2023-05-06T09:53:52.275Z,568.00
2023-05-06T09:54:52.270Z,552.00
2023-05-06T09:55:52.250Z,460.00
2023-05-06T09:56:52.218Z,504.00
2023-05-06T09:57:52.254Z,552.00
2023-05-06T09:58:52.196Z,472.00
2023-05-06T09:59:52.257Z,380.00
2023-05-06T10:00:52.197Z,328.00
2023-05-06T10:01:52.205Z,348.00
2023-05-06T10:02:52.290Z,548.00
2023-05-06T10:03:52.276Z,540.00
2023-05-06T10:04:52.419Z,540.00
2023-05-06T10:05:52.113Z,556.00
2023-05-06T10:06:52.131Z,400.00
2023-05-06T10:07:52.131Z,392.00
2023-05-06T10:08:52.075Z,568.00
2023-05-06T10:09:52.089Z,580.00
2023-05-06T10:10:52.032Z,560.00
2023-05-06T10:11:52.063Z,536.00
2023-05-06T10:12:52.075Z,516.00
2023-05-06T10:13:52.028Z,508.00
2023-05-06T10:14:51.998Z,516.00
2023-05-06T10:15:52.040Z,548.00
2023-05-06T10:16:51.980Z,548.00
2023-05-06T10:17:51.984Z,540.00
2023-05-06T10:18:51.936Z,532.00
2023-05-06T10:19:51.959Z,516.00
2023-05-06T10:20:51.911Z,500.00
2023-05-06T10:21:51.943Z,504.00
2023-05-06T10:22:51.910Z,488.00
2023-05-06T10:23:51.888Z,460.00
2023-05-06T10:24:51.913Z,324.00
2023-05-06T10:25:51.884Z,312.00
2023-05-06T10:26:51.839Z,436.00
2023-05-06T10:27:51.859Z,324.00
2023-05-06T10:28:51.815Z,388.00
2023-05-06T10:29:51.835Z,420.00
2023-05-06T10:30:51.804Z,424.00
2023-05-06T10:31:51.803Z,436.00
2023-05-06T10:32:51.771Z,440.00
2023-05-06T10:33:51.761Z,436.00
2023-05-06T10:34:51.728Z,444.00
2023-05-06T10:35:51.806Z,440.00
2023-05-06T10:36:51.682Z,428.00
2023-05-06T10:37:51.714Z,420.00
2023-05-06T10:38:51.741Z,424.00
2023-05-06T10:39:51.682Z,416.00
2023-05-06T10:40:51.669Z,412.00
2023-05-06T10:41:51.699Z,404.00
2023-05-06T10:42:51.616Z,404.00
2023-05-06T10:43:51.633Z,400.00
2023-05-06T10:44:51.584Z,384.00
2023-05-06T10:45:51.639Z,384.00
2023-05-06T10:46:51.579Z,380.00
2023-05-06T10:47:51.737Z,372.00
2023-05-06T10:48:51.537Z,360.00
2023-05-06T10:49:51.548Z,356.00
2023-05-06T10:50:51.541Z,360.00
2023-05-06T10:51:51.553Z,356.00
2023-05-06T10:52:51.481Z,352.00
2023-05-06T10:53:51.515Z,344.00
2023-05-06T10:54:51.465Z,348.00
2023-05-06T10:55:51.488Z,344.00
2023-05-06T10:56:51.452Z,348.00
2023-05-06T10:57:51.462Z,336.00
2023-05-06T10:58:51.431Z,328.00
2023-05-06T10:59:51.426Z,328.00
2023-05-06T11:00:51.465Z,328.00
2023-05-06T11:01:51.391Z,324.00
2023-05-06T11:02:51.479Z,320.00
2023-05-06T11:03:51.365Z,316.00
2023-05-06T11:04:51.356Z,320.00
2023-05-06T11:05:51.421Z,320.00
2023-05-06T11:06:51.301Z,316.00
2023-05-06T11:07:51.342Z,312.00
2023-05-06T11:08:51.276Z,312.00
2023-05-06T11:09:51.292Z,300.00
2023-05-06T11:10:51.261Z,296.00
2023-05-06T11:11:51.285Z,292.00
2023-05-06T11:12:51.338Z,296.00
2023-05-06T11:13:51.250Z,296.00
2023-05-06T11:14:51.360Z,300.00
2023-05-06T11:15:51.206Z,292.00
2023-05-06T11:16:51.338Z,288.00
2023-05-06T11:17:51.228Z,288.00
2023-05-06T11:18:51.183Z,284.00
2023-05-06T11:19:51.172Z,280.00
2023-05-06T11:20:51.151Z,272.00
2023-05-06T11:21:51.139Z,272.00
2023-05-06T11:22:51.109Z,268.00
2023-05-06T11:23:51.115Z,272.00
2023-05-06T11:24:51.131Z,276.00
2023-05-06T11:25:51.084Z,272.00
2023-05-06T11:26:51.042Z,252.00
2023-05-06T11:27:51.141Z,252.00
2023-05-06T11:28:51.032Z,248.00
2023-05-06T11:29:51.132Z,268.00
2023-05-06T11:30:51.051Z,264.00
2023-05-06T11:31:51.233Z,268.00
2023-05-06T11:32:51.083Z,280.00
2023-05-06T11:33:51.006Z,304.00
2023-05-06T11:34:50.988Z,300.00
2023-05-06T11:35:50.954Z,292.00
2023-05-06T11:36:50.926Z,296.00
2023-05-06T11:37:51.013Z,292.00
2023-05-06T11:38:50.877Z,288.00
2023-05-06T11:39:50.912Z,280.00
2023-05-06T11:40:51.412Z,276.00
2023-05-06T11:41:50.914Z,276.00
2023-05-06T11:42:50.864Z,280.00
2023-05-06T11:43:50.891Z,284.00
2023-05-06T11:44:50.893Z,288.00
2023-05-06T11:45:50.865Z,284.00
2023-05-06T11:46:51.000Z,284.00
2023-05-06T11:47:50.796Z,288.00
2023-05-06T11:48:50.820Z,284.00
2023-05-06T11:49:50.815Z,276.00
2023-05-06T11:50:50.793Z,248.00
2023-05-06T11:51:50.777Z,268.00
2023-05-06T11:52:50.707Z,264.00
2023-05-06T11:53:50.728Z,268.00
2023-05-06T11:54:50.694Z,256.00
2023-05-06T11:55:50.712Z,272.00
2023-05-06T11:56:50.719Z,264.00
2023-05-06T11:57:50.690Z,256.00
2023-05-06T11:58:51.205Z,248.00
2023-05-06T11:59:50.654Z,248.00
2023-05-06T12:00:51.483Z,240.00
2023-05-06T12:01:50.635Z,240.00
2023-05-06T12:02:50.631Z,240.00
2023-05-06T12:03:50.742Z,240.00
2023-05-06T12:04:50.596Z,236.00
2023-05-06T12:05:50.577Z,236.00
2023-05-06T12:06:50.570Z,236.00
2023-05-06T12:07:50.640Z,236.00
2023-05-06T12:08:50.496Z,228.00
2023-05-06T12:09:50.532Z,224.00
2023-05-06T12:10:50.494Z,220.00
2023-05-06T12:11:50.521Z,216.00
2023-05-06T12:12:50.493Z,212.00
2023-05-06T12:13:50.495Z,212.00
2023-05-06T12:14:50.423Z,208.00
2023-05-06T12:15:50.678Z,204.00
2023-05-06T12:16:52.040Z,200.00
2023-05-06T12:17:50.464Z,200.00
2023-05-06T12:18:50.402Z,200.00
2023-05-06T12:19:50.403Z,196.00
2023-05-06T12:20:50.339Z,192.00
2023-05-06T12:21:50.380Z,192.00
2023-05-06T12:22:50.350Z,196.00
2023-05-06T12:23:50.361Z,200.00
2023-05-06T12:24:50.367Z,204.00
2023-05-06T12:25:50.387Z,212.00
2023-05-06T12:26:50.280Z,208.00
2023-05-06T12:27:50.279Z,200.00
2023-05-06T12:28:50.283Z,196.00
2023-05-06T12:29:50.256Z,196.00
2023-05-06T12:30:50.215Z,196.00
2023-05-06T12:31:50.255Z,196.00
2023-05-06T12:32:50.250Z,196.00
2023-05-06T12:33:50.318Z,192.00
2023-05-06T12:34:50.336Z,184.00
2023-05-06T12:35:50.303Z,184.00
2023-05-06T12:36:50.174Z,188.00
2023-05-06T12:37:50.174Z,184.00
2023-05-06T12:38:50.222Z,184.00
2023-05-06T12:39:50.206Z,192.00
2023-05-06T12:40:50.103Z,196.00
2023-05-06T12:41:50.118Z,200.00
2023-05-06T12:42:50.072Z,200.00
2023-05-06T12:43:50.105Z,200.00
2023-05-06T12:44:50.104Z,216.00
2023-05-06T12:45:50.112Z,220.00
2023-05-06T12:46:50.029Z,216.00